createdAt,value
2023-05-20T00:02:03.744Z,3.30
2023-05-20T00:04:51.765Z,3.25
2023-05-20T00:07:39.860Z,3.20
2023-05-20T00:10:27.824Z,3.80
2023-05-20T00:13:15.799Z,3.10
2023-05-20T00:16:03.981Z,3.67
2023-05-20T00:18:51.901Z,3.38
2023-05-20T00:21:39.761Z,3.70
2023-05-20T00:24:28.004Z,3.30
2023-05-20T00:27:15.877Z,3.47
2023-05-20T00:30:04.077Z,4.00
2023-05-20T00:32:52.024Z,3.63
2023-05-20T00:35:40.012Z,3.67
2023-05-20T00:38:27.914Z,3.53
2023-05-20T00:41:15.737Z,3.53
2023-05-20T00:44:03.719Z,3.55
2023-05-20T00:46:52.574Z,3.80
2023-05-20T00:49:40.607Z,4.03
2023-05-20T00:52:32.815Z,3.95
2023-05-20T00:55:23.740Z,4.05
2023-05-20T00:58:11.844Z,4.17
2023-05-20T01:00:59.985Z,3.72
2023-05-20T01:03:48.989Z,4.28
2023-05-20T01:06:38.136Z,3.92
2023-05-20T01:09:26.121Z,3.80
2023-05-20T01:12:29.648Z,4.18
2023-05-20T01:15:19.009Z,4.00
2023-05-20T01:18:10.824Z,4.00
2023-05-20T01:23:50.275Z,4.07
2023-05-20T01:26:38.493Z,3.90
2023-05-20T01:29:26.541Z,4.72
2023-05-20T01:32:34.923Z,4.38
2023-05-20T01:35:23.946Z,4.70
2023-05-20T01:38:13.801Z,4.55
2023-05-20T01:41:05.109Z,4.75
2023-05-20T01:43:55.773Z,3.90
2023-05-20T01:46:50.037Z,4.45
2023-05-20T01:49:37.831Z,3.92
2023-05-20T01:52:26.416Z,3.83
2023-05-20T01:55:14.239Z,3.83
2023-05-20T01:58:03.406Z,3.72
2023-05-20T02:00:51.613Z,4.05
2023-05-20T02:03:39.624Z,3.95
2023-05-20T02:06:27.610Z,4.60
2023-05-20T02:09:16.571Z,4.10
2023-05-20T02:12:06.821Z,4.80
2023-05-20T02:14:56.068Z,4.38
2023-05-20T02:17:44.035Z,4.90
2023-05-20T02:20:31.936Z,4.60
2023-05-20T02:23:22.193Z,4.20
2023-05-20T02:26:10.187Z,4.40
2023-05-20T02:28:58.074Z,4.43
2023-05-20T02:31:45.950Z,4.60
2023-05-20T02:34:33.991Z,4.55
2023-05-20T02:37:23.354Z,3.97
2023-05-20T02:40:12.016Z,4.80
2023-05-20T02:43:01.944Z,4.40
2023-05-20T02:45:50.188Z,4.50
2023-05-20T02:48:38.408Z,5.25
2023-05-20T02:51:26.390Z,4.70
2023-05-20T02:54:14.246Z,4.25
2023-05-20T02:57:03.457Z,4.38
2023-05-20T02:59:52.455Z,4.53
2023-05-20T03:02:40.486Z,4.57
2023-05-20T03:05:29.075Z,4.35
2023-05-20T03:08:21.568Z,4.40
2023-05-20T03:13:57.159Z,4.32
2023-05-20T03:16:47.319Z,4.78
2023-05-20T03:19:35.557Z,4.93
2023-05-20T03:22:25.422Z,4.55
2023-05-20T03:25:13.556Z,4.82
2023-05-20T03:28:01.896Z,5.45
2023-05-20T03:30:50.450Z,5.00
2023-05-20T03:33:38.700Z,4.38
2023-05-20T03:36:26.707Z,4.75
2023-05-20T03:39:14.585Z,4.70
2023-05-20T03:42:02.718Z,4.85
2023-05-20T03:44:50.660Z,4.97
2023-05-20T03:47:39.818Z,5.00
2023-05-20T03:50:27.849Z,4.65
2023-05-20T03:53:15.653Z,4.60
2023-05-20T03:56:03.653Z,4.40
2023-05-20T03:58:51.994Z,4.40
2023-05-20T04:01:40.096Z,5.13
2023-05-20T04:04:28.231Z,4.93
2023-05-20T04:07:16.069Z,5.05
2023-05-20T04:10:05.548Z,4.60
2023-05-20T04:12:54.004Z,4.82
2023-05-20T04:15:42.747Z,5.00
2023-05-20T04:18:31.992Z,4.70
2023-05-20T04:21:20.067Z,5.32
2023-05-20T04:24:08.866Z,5.18
2023-05-20T04:26:56.963Z,4.50
2023-05-20T04:29:46.110Z,4.75
2023-05-20T04:32:34.795Z,4.93
2023-05-20T04:35:26.281Z,4.82
2023-05-20T04:38:16.458Z,4.22
2023-05-20T04:41:04.814Z,4.75
2023-05-20T04:43:53.952Z,4.82
2023-05-20T04:46:42.732Z,4.63
2023-05-20T04:49:30.693Z,4.40
2023-05-20T04:52:19.156Z,5.20
2023-05-20T04:55:11.831Z,4.38
2023-05-20T04:57:59.647Z,4.50
2023-05-20T05:00:49.254Z,4.40
2023-05-20T05:03:37.201Z,3.83
2023-05-20T05:06:25.687Z,4.47
2023-05-20T05:09:13.883Z,4.40
2023-05-20T05:12:03.495Z,4.10
2023-05-20T05:14:51.516Z,4.38
2023-05-20T05:17:39.498Z,4.50
2023-05-20T05:20:28.212Z,4.88
2023-05-20T05:23:16.368Z,4.30
2023-05-20T05:26:04.585Z,4.22
2023-05-20T05:28:55.097Z,4.38
2023-05-20T05:31:43.594Z,4.38
2023-05-20T05:34:31.482Z,4.15
2023-05-20T05:37:20.136Z,4.15
2023-05-20T05:40:09.234Z,4.50
2023-05-20T05:42:57.228Z,4.32
2023-05-20T05:45:46.161Z,3.78
2023-05-20T05:48:34.651Z,4.22
2023-05-20T05:51:22.572Z,3.95
2023-05-20T05:54:10.953Z,3.72
2023-05-20T05:56:59.202Z,3.80
2023-05-20T05:59:49.588Z,3.75
2023-05-20T06:02:37.776Z,3.90
2023-05-20T06:05:31.198Z,4.20
2023-05-20T06:08:19.342Z,4.03
2023-05-20T06:11:07.110Z,3.40
2023-05-20T06:13:55.087Z,3.30
2023-05-20T06:16:43.049Z,4.15
2023-05-20T06:19:31.066Z,3.10
2023-05-20T06:22:18.955Z,3.53
2023-05-20T06:25:08.081Z,3.75
2023-05-20T06:27:57.145Z,3.47
2023-05-20T06:30:45.816Z,3.22
2023-05-20T06:33:33.659Z,3.05
2023-05-20T06:36:28.180Z,3.58
2023-05-20T06:39:16.303Z,3.22
2023-05-20T06:42:05.806Z,3.13
2023-05-20T06:44:57.163Z,3.22
2023-05-20T06:48:02.359Z,3.10
2023-05-20T06:50:50.788Z,2.97
2023-05-20T06:53:38.741Z,3.40
2023-05-20T06:56:27.074Z,3.00
2023-05-20T06:59:15.572Z,2.70
2023-05-20T07:02:05.609Z,3.10
2023-05-20T07:04:53.916Z,3.05
2023-05-20T07:07:41.843Z,2.70
2023-05-20T07:10:30.599Z,2.80
2023-05-20T07:13:18.630Z,2.90
2023-05-20T07:16:06.793Z,2.78
2023-05-20T07:18:56.854Z,2.60
2023-05-20T07:21:49.799Z,3.03
2023-05-20T07:24:58.669Z,2.97
2023-05-20T07:27:46.757Z,2.90
2023-05-20T07:30:34.658Z,2.92
2023-05-20T07:33:44.640Z,3.10
2023-05-20T07:36:33.337Z,2.70
2023-05-20T07:39:26.469Z,2.40
2023-05-20T07:42:14.494Z,2.75
2023-05-20T07:45:06.810Z,3.03
2023-05-20T07:47:54.875Z,2.85
2023-05-20T07:50:45.976Z,2.83
2023-05-20T07:53:34.630Z,2.67
2023-05-20T07:56:27.108Z,3.00
2023-05-20T07:59:15.320Z,2.65
2023-05-20T08:02:07.319Z,3.03
2023-05-20T08:04:55.796Z,3.20
2023-05-20T08:07:46.157Z,2.75
2023-05-20T08:10:37.330Z,2.80
2023-05-20T08:13:25.767Z,2.78
2023-05-20T08:16:20.617Z,2.75
2023-05-20T08:19:11.961Z,2.40
2023-05-20T08:21:59.963Z,3.22
2023-05-20T08:24:47.940Z,2.92
2023-05-20T08:27:37.607Z,2.75
2023-05-20T08:30:28.081Z,2.30
2023-05-20T08:33:22.474Z,2.50
2023-05-20T08:36:10.769Z,2.70
2023-05-20T08:39:00.256Z,2.47
2023-05-20T08:41:50.134Z,2.90
2023-05-20T08:44:45.955Z,2.72
2023-05-20T08:47:34.243Z,2.53
2023-05-20T08:50:25.001Z,2.92
2023-05-20T08:53:16.224Z,3.05
2023-05-20T08:56:04.697Z,2.45
2023-05-20T08:58:59.610Z,2.55
2023-05-20T09:02:06.336Z,2.25
2023-05-20T09:04:58.104Z,2.88
2023-05-20T09:07:46.081Z,2.50
2023-05-20T09:10:36.512Z,3.22
2023-05-20T09:13:24.903Z,3.13
2023-05-20T09:16:17.774Z,2.83
2023-05-20T09:19:10.236Z,3.03
2023-05-20T09:22:07.883Z,2.67
2023-05-20T09:28:06.560Z,2.40
2023-05-20T09:31:01.547Z,2.00
2023-05-20T09:33:50.223Z,2.50
2023-05-20T09:36:41.945Z,2.38
2023-05-20T09:42:56.565Z,2.13
2023-05-20T09:45:45.139Z,2.05
2023-05-20T09:48:36.472Z,2.28
2023-05-20T09:51:38.208Z,1.92
2023-05-20T09:57:18.772Z,2.15
2023-05-20T10:00:13.191Z,2.58
2023-05-20T10:03:04.636Z,2.60
2023-05-20T10:06:14.831Z,2.30
2023-05-20T10:09:42.972Z,2.30
2023-05-20T10:12:49.850Z,2.47
2023-05-20T10:16:06.500Z,2.20
2023-05-20T10:19:35.071Z,2.50
2023-05-20T10:22:31.707Z,1.98
2023-05-20T10:25:31.189Z,2.00
2023-05-20T10:31:48.912Z,1.75
2023-05-20T10:34:50.718Z,1.80
2023-05-20T10:40:37.006Z,1.70
2023-05-20T10:43:31.490Z,1.75
2023-05-20T10:46:31.861Z,2.45
2023-05-20T10:49:42.877Z,2.00
2023-05-20T10:52:37.175Z,1.80
2023-05-20T10:55:25.032Z,1.80
2023-05-20T10:58:14.554Z,1.73
2023-05-20T11:01:08.491Z,2.03
2023-05-20T11:04:09.605Z,1.80
2023-05-20T11:06:58.777Z,2.40
2023-05-20T11:09:50.757Z,2.38
2023-05-20T11:12:40.080Z,2.53
2023-05-20T11:15:28.560Z,2.22
2023-05-20T11:18:19.231Z,1.85
2023-05-20T11:21:07.276Z,2.13
2023-05-20T11:23:55.336Z,2.10
2023-05-20T11:26:43.332Z,2.10
2023-05-20T11:29:32.421Z,1.80
2023-05-20T11:32:23.769Z,1.90
2023-05-20T11:35:32.293Z,1.88
2023-05-20T11:38:22.006Z,2.03
2023-05-20T11:41:11.946Z,2.03
2023-05-20T11:44:03.203Z,2.08
2023-05-20T11:46:55.497Z,2.00
2023-05-20T11:49:49.625Z,1.95
2023-05-20T11:52:48.120Z,2.30
2023-05-20T11:56:03.378Z,1.90
2023-05-20T11:58:59.613Z,2.00
2023-05-20T12:01:53.412Z,1.85
2023-05-20T12:04:44.214Z,1.90
2023-05-20T12:07:32.110Z,2.20
2023-05-20T12:10:20.316Z,1.80
2023-05-20T12:13:13.116Z,2.20
2023-05-20T12:16:06.714Z,2.10
2023-05-20T12:18:54.678Z,1.88
2023-05-20T12:21:47.291Z,2.13
2023-05-20T12:24:36.317Z,2.28
2023-05-20T12:27:26.613Z,1.95
2023-05-20T12:30:17.851Z,1.70
2023-05-20T12:33:09.493Z,1.80
2023-05-20T12:36:00.371Z,2.45
2023-05-20T12:38:51.080Z,1.75
2023-05-20T12:41:40.036Z,2.20
2023-05-20T12:44:27.950Z,2.03
2023-05-20T12:47:15.957Z,1.80
2023-05-20T12:50:04.513Z,1.90
2023-05-20T12:52:52.749Z,2.20
2023-05-20T12:55:41.047Z,2.47
2023-05-20T12:58:28.950Z,1.88
2023-05-20T13:01:17.224Z,1.63
2023-05-20T13:04:05.755Z,2.28
2023-05-20T13:06:53.895Z,1.83
2023-05-20T13:09:41.981Z,1.67
2023-05-20T13:12:30.211Z,1.60
2023-05-20T13:15:18.253Z,1.98
2023-05-20T13:18:08.715Z,1.75
2023-05-20T13:20:59.977Z,2.00
2023-05-20T13:23:50.435Z,2.17
2023-05-20T13:26:39.753Z,1.65
2023-05-20T13:29:28.292Z,1.75
2023-05-20T13:32:42.837Z,1.67
2023-05-20T13:36:08.572Z,2.40
2023-05-20T13:39:09.201Z,2.10
2023-05-20T13:42:08.806Z,2.10
2023-05-20T13:45:17.001Z,2.13
2023-05-20T13:48:11.590Z,1.80
2023-05-20T13:51:15.052Z,1.98
2023-05-20T13:54:06.747Z,1.77
2023-05-20T13:57:27.104Z,1.70
2023-05-20T14:00:42.661Z,2.00
2023-05-20T14:03:53.338Z,1.67
2023-05-20T14:07:09.611Z,1.70
2023-05-20T14:09:57.812Z,1.77
2023-05-20T14:12:48.216Z,1.98
2023-05-20T14:15:36.847Z,1.83
2023-05-20T14:18:24.726Z,1.95
2023-05-20T14:21:12.490Z,1.73
2023-05-20T14:24:01.322Z,1.70
2023-05-20T14:26:49.140Z,1.80
2023-05-20T14:29:37.195Z,1.77
2023-05-20T14:32:25.141Z,1.80
2023-05-20T14:35:13.131Z,1.60
2023-05-20T14:38:01.146Z,1.50
2023-05-20T14:40:48.999Z,1.88
2023-05-20T14:43:36.990Z,1.75
2023-05-20T14:46:24.928Z,1.90
2023-05-20T14:49:12.751Z,1.90
2023-05-20T14:52:00.560Z,2.13
2023-05-20T14:54:48.943Z,1.90
2023-05-20T14:57:36.763Z,1.80
2023-05-20T15:00:24.623Z,1.75
2023-05-20T15:03:12.504Z,1.85
2023-05-20T15:06:00.678Z,1.77
2023-05-20T15:08:48.467Z,1.60
2023-05-20T15:11:36.340Z,1.63
2023-05-20T15:14:24.105Z,1.65
2023-05-20T15:17:12.163Z,2.58
2023-05-20T15:20:00.139Z,1.92
2023-05-20T15:22:48.342Z,2.22
2023-05-20T15:25:36.466Z,2.40
2023-05-20T15:28:24.922Z,3.63
2023-05-20T15:31:12.709Z,1.88
2023-05-20T15:34:00.604Z,1.65
2023-05-20T15:36:48.412Z,1.90
2023-05-20T15:39:39.360Z,1.48
2023-05-20T15:42:27.189Z,2.25
2023-05-20T15:45:15.052Z,1.73
2023-05-20T15:48:03.182Z,1.50
2023-05-20T15:50:51.207Z,1.40
2023-05-20T15:53:40.767Z,1.60
2023-05-20T15:56:29.840Z,1.33
2023-05-20T15:59:17.646Z,1.83
2023-05-20T16:02:05.618Z,1.30
2023-05-20T16:04:53.568Z,2.42
2023-05-20T16:07:44.207Z,1.33
2023-05-20T16:10:34.651Z,1.52
2023-05-20T16:13:23.453Z,1.57
2023-05-20T16:16:13.524Z,1.63
2023-05-20T16:19:01.615Z,1.60
2023-05-20T16:21:49.542Z,1.38
2023-05-20T16:24:37.468Z,1.52
2023-05-20T16:27:25.428Z,1.40
2023-05-20T16:30:13.302Z,1.20
2023-05-20T16:33:01.114Z,1.27
2023-05-20T16:35:49.171Z,1.27
2023-05-20T16:38:36.962Z,1.30
2023-05-20T16:41:24.841Z,1.15
2023-05-20T16:44:12.775Z,1.40
2023-05-20T16:47:00.593Z,2.22
2023-05-20T16:49:48.410Z,1.42
2023-05-20T16:52:37.847Z,1.60
2023-05-20T16:55:26.943Z,1.48
2023-05-20T16:58:14.793Z,1.50
2023-05-20T17:01:03.054Z,1.20
2023-05-20T17:03:51.013Z,1.45
2023-05-20T17:06:39.874Z,1.38
2023-05-20T17:09:28.873Z,1.30
2023-05-20T17:12:16.925Z,1.27
2023-05-20T17:15:06.156Z,1.38
2023-05-20T17:17:54.301Z,1.38
2023-05-20T17:20:42.283Z,1.50
2023-05-20T17:23:30.193Z,1.40
2023-05-20T17:26:18.213Z,1.25
2023-05-20T17:29:06.592Z,1.10
2023-05-20T17:31:54.475Z,1.60
2023-05-20T17:34:42.311Z,1.08
2023-05-20T17:37:30.337Z,1.45
2023-05-20T17:40:18.827Z,1.33
2023-05-20T17:43:06.600Z,1.17
2023-05-20T17:45:54.543Z,1.30
2023-05-20T17:48:42.607Z,1.55
2023-05-20T17:51:31.835Z,1.17
2023-05-20T17:54:19.679Z,1.20
2023-05-20T17:57:07.521Z,1.80
2023-05-20T17:59:55.642Z,1.30
2023-05-20T18:02:47.989Z,1.60
2023-05-20T18:05:36.540Z,1.35
2023-05-20T18:08:25.515Z,1.20
2023-05-20T18:11:13.378Z,1.70
2023-05-20T18:14:02.769Z,1.38
2023-05-20T18:16:50.863Z,1.17
2023-05-20T18:19:38.753Z,1.27
2023-05-20T18:22:27.033Z,1.20
2023-05-20T18:25:15.431Z,1.70
2023-05-20T18:28:03.391Z,1.20
2023-05-20T18:30:51.245Z,1.50
2023-05-20T18:33:40.906Z,1.20
2023-05-20T18:36:30.117Z,1.25
2023-05-20T18:39:21.215Z,1.33
2023-05-20T18:42:09.231Z,1.30
2023-05-20T18:44:57.032Z,1.30
2023-05-20T18:47:45.057Z,1.60
2023-05-20T18:50:33.658Z,1.55
2023-05-20T18:53:22.157Z,1.52
2023-05-20T18:56:10.102Z,1.42
2023-05-20T18:58:58.673Z,1.50
2023-05-20T19:01:46.599Z,1.60
2023-05-20T19:04:34.393Z,1.30
2023-05-20T19:07:23.493Z,1.50
2023-05-20T19:10:11.691Z,1.45
2023-05-20T19:12:59.934Z,1.52
2023-05-20T19:15:47.960Z,1.75
2023-05-20T19:18:35.924Z,1.70
2023-05-20T19:21:23.729Z,1.75
2023-05-20T19:24:11.673Z,1.50
2023-05-20T19:26:59.458Z,1.42
2023-05-20T19:29:47.223Z,1.50
2023-05-20T19:32:35.127Z,1.70
2023-05-20T19:35:23.001Z,1.42
2023-05-20T19:38:10.841Z,1.50
2023-05-20T19:40:58.607Z,1.70
2023-05-20T19:43:46.408Z,1.70
2023-05-20T19:46:35.544Z,2.13
2023-05-20T19:49:23.311Z,1.50
2023-05-20T19:52:11.088Z,2.08
2023-05-20T19:54:58.894Z,1.50
2023-05-20T19:57:53.035Z,1.75
2023-05-20T20:00:40.867Z,1.60
2023-05-20T20:03:28.851Z,1.60
2023-05-20T20:06:16.782Z,2.10
2023-05-20T20:09:05.116Z,1.90
2023-05-20T20:11:52.891Z,2.20
2023-05-20T20:14:40.850Z,1.63
2023-05-20T20:17:30.292Z,2.10
2023-05-20T20:20:18.775Z,2.08
2023-05-20T20:23:10.162Z,1.75
2023-05-20T20:25:59.053Z,2.20
2023-05-20T20:28:46.858Z,2.28
2023-05-20T20:31:34.836Z,1.98
2023-05-20T20:34:23.090Z,2.03
2023-05-20T20:37:15.080Z,1.60
2023-05-20T20:40:05.408Z,1.75
2023-05-20T20:42:54.644Z,1.70
2023-05-20T20:45:42.695Z,2.00
2023-05-20T20:48:30.587Z,2.17
2023-05-20T20:51:19.452Z,2.00
2023-05-20T20:54:08.012Z,1.77
2023-05-20T20:56:56.783Z,2.10
2023-05-20T20:59:47.988Z,2.10
2023-05-20T21:02:36.260Z,2.55
2023-05-20T21:05:26.405Z,2.28
2023-05-20T21:08:14.413Z,1.90
2023-05-20T21:11:02.312Z,2.53
2023-05-20T21:13:50.059Z,2.30
2023-05-20T21:16:38.413Z,2.33
2023-05-20T21:19:26.775Z,2.38
2023-05-20T21:22:14.854Z,2.25
2023-05-20T21:25:02.701Z,2.42
2023-05-20T21:27:50.603Z,2.30
2023-05-20T21:30:38.415Z,2.40
2023-05-20T21:33:26.416Z,2.45
2023-05-20T21:36:14.291Z,2.50
2023-05-20T21:39:02.138Z,2.42
2023-05-20T21:41:50.035Z,2.30
2023-05-20T21:44:37.854Z,2.50
2023-05-20T21:47:25.671Z,2.65
2023-05-20T21:50:13.564Z,2.40
2023-05-20T21:53:01.452Z,2.70
2023-05-20T21:55:49.723Z,2.60
2023-05-20T21:58:41.102Z,2.53
2023-05-20T22:01:29.151Z,2.75
2023-05-20T22:04:18.972Z,2.60
2023-05-20T22:07:06.834Z,2.65
2023-05-20T22:09:54.638Z,2.42
2023-05-20T22:12:42.598Z,2.70
2023-05-20T22:15:31.432Z,2.88
2023-05-20T22:18:22.401Z,2.92
2023-05-20T22:21:10.181Z,3.60
2023-05-20T22:23:58.050Z,2.95
2023-05-20T22:26:46.047Z,3.00
2023-05-20T22:29:33.939Z,3.00
2023-05-20T22:32:21.728Z,3.13
2023-05-20T22:35:10.164Z,2.92
2023-05-20T22:37:57.951Z,3.20
2023-05-20T22:40:46.089Z,3.35
2023-05-20T22:43:34.009Z,3.28
2023-05-20T22:46:21.880Z,3.65
2023-05-20T22:49:11.333Z,3.20
2023-05-20T22:51:59.396Z,3.20
2023-05-20T22:54:47.192Z,3.15
2023-05-20T22:57:35.379Z,3.13
2023-05-20T23:00:23.369Z,3.72
2023-05-20T23:03:12.147Z,3.78
2023-05-20T23:05:59.951Z,3.70
2023-05-20T23:08:47.826Z,3.70
2023-05-20T23:11:35.639Z,3.75
2023-05-20T23:14:24.233Z,3.53
2023-05-20T23:17:12.054Z,3.60
2023-05-20T23:20:00.625Z,3.83
2023-05-20T23:22:48.581Z,3.55
2023-05-20T23:25:36.613Z,3.63
2023-05-20T23:28:24.658Z,3.70
2023-05-20T23:31:14.743Z,3.80
2023-05-20T23:34:03.907Z,4.20
2023-05-20T23:36:52.871Z,3.83
2023-05-20T23:39:40.721Z,3.85
2023-05-20T23:42:29.017Z,4.80
2023-05-20T23:45:17.108Z,4.18
2023-05-20T23:48:06.392Z,4.65
2023-05-20T23:50:54.258Z,4.75
2023-05-20T23:53:42.741Z,4.70
2023-05-20T23:56:30.741Z,5.07
2023-05-20T23:59:18.551Z,4.90
